createdAt,value
2023-03-02T00:02:54.364Z,15.48
2023-03-02T00:07:59.118Z,15.90
2023-03-02T00:13:00.846Z,15.07
2023-03-02T00:18:02.469Z,17.25
2023-03-02T00:23:04.246Z,16.65
2023-03-02T00:28:05.771Z,17.55
2023-03-02T00:33:07.477Z,16.75
2023-03-02T00:38:09.196Z,16.98
2023-03-02T00:43:10.814Z,15.30
2023-03-02T00:48:12.328Z,16.95
2023-03-02T00:53:13.930Z,16.38
2023-03-02T00:58:15.439Z,16.40
2023-03-02T01:03:17.298Z,16.02
2023-03-02T01:08:19.174Z,17.83
2023-03-02T01:13:20.771Z,16.75
2023-03-02T01:18:22.293Z,16.70
2023-03-02T01:23:23.816Z,16.00
2023-03-02T01:28:25.600Z,16.88
2023-03-02T01:33:27.239Z,17.02
2023-03-02T01:38:28.923Z,17.27
2023-03-02T01:43:30.730Z,16.40
2023-03-02T01:48:44.808Z,17.13
2023-03-02T01:53:48.534Z,16.92
2023-03-02T01:58:56.481Z,17.15
2023-03-02T02:03:58.345Z,17.45
2023-03-02T02:09:02.193Z,17.58
2023-03-02T02:14:04.189Z,16.55
2023-03-02T02:19:34.514Z,17.13
2023-03-02T02:24:45.908Z,17.15
2023-03-02T02:29:51.469Z,16.83
2023-03-02T02:35:16.867Z,16.58
2023-03-02T02:40:23.071Z,16.92
2023-03-02T02:45:26.783Z,17.10
2023-03-02T02:50:34.925Z,16.48
2023-03-02T03:00:38.455Z,17.85
2023-03-02T03:05:40.077Z,17.77
2023-03-02T03:10:44.044Z,18.40
2023-03-02T03:15:46.322Z,18.08
2023-03-02T03:20:47.929Z,17.20
2023-03-02T03:25:49.757Z,18.05
2023-03-02T03:30:51.884Z,17.17
2023-03-02T03:35:54.073Z,18.38
2023-03-02T03:40:57.222Z,18.30
2023-03-02T03:45:58.822Z,17.27
2023-03-02T03:51:00.808Z,17.92
2023-03-02T03:56:03.824Z,16.85
2023-03-02T04:01:05.675Z,16.73
2023-03-02T04:06:08.127Z,17.52
2023-03-02T04:11:09.809Z,17.63
2023-03-02T04:16:12.053Z,19.55
2023-03-02T04:21:14.263Z,18.25
2023-03-02T04:26:15.969Z,17.50
2023-03-02T04:31:18.084Z,17.25
2023-03-02T04:36:20.136Z,17.08
2023-03-02T04:41:22.832Z,18.40
2023-03-02T04:46:26.673Z,17.67
2023-03-02T04:51:34.661Z,19.13
2023-03-02T04:56:36.344Z,17.75
2023-03-02T05:01:37.895Z,18.08
2023-03-02T05:06:39.797Z,18.42
2023-03-02T05:11:41.640Z,18.50
2023-03-02T05:16:43.323Z,17.58
2023-03-02T05:21:45.148Z,17.73
2023-03-02T05:26:46.662Z,17.63
2023-03-02T05:31:50.053Z,17.77
2023-03-02T05:36:51.687Z,19.30
2023-03-02T05:41:53.685Z,18.05
2023-03-02T05:46:55.275Z,18.58
2023-03-02T05:51:57.065Z,18.83
2023-03-02T05:56:58.624Z,17.90
2023-03-02T06:02:00.329Z,19.00
2023-03-02T06:07:01.912Z,19.58
2023-03-02T06:12:04.035Z,18.77
2023-03-02T06:17:05.636Z,19.02
2023-03-02T06:22:07.246Z,19.30
2023-03-02T06:27:08.902Z,19.55
2023-03-02T06:32:10.633Z,19.70
2023-03-02T06:37:12.349Z,21.08
2023-03-02T06:42:13.869Z,19.55
2023-03-02T06:47:15.378Z,20.95
2023-03-02T06:52:17.068Z,19.35
2023-03-02T06:57:18.659Z,18.58
2023-03-02T07:02:20.205Z,18.08
2023-03-02T07:07:21.761Z,20.45
2023-03-02T07:12:23.287Z,19.35
2023-03-02T07:17:24.800Z,19.25
2023-03-02T07:22:26.265Z,18.73
2023-03-02T07:27:27.905Z,20.23
2023-03-02T07:32:29.525Z,18.33
2023-03-02T07:37:31.032Z,18.85
2023-03-02T07:42:33.687Z,18.30
2023-03-02T07:47:36.593Z,20.30
2023-03-02T07:52:38.087Z,18.83
2023-03-02T07:57:39.599Z,19.13
2023-03-02T08:02:41.986Z,18.30
2023-03-02T08:07:43.983Z,19.02
2023-03-02T08:12:45.539Z,20.08
2023-03-02T08:17:47.057Z,19.25
2023-03-02T08:22:48.661Z,18.50
2023-03-02T08:27:50.221Z,19.77
2023-03-02T08:32:51.862Z,18.55
2023-03-02T08:37:54.154Z,17.88
2023-03-02T08:42:57.395Z,20.05
2023-03-02T08:47:58.871Z,18.35
2023-03-02T08:53:00.320Z,18.30
2023-03-02T08:58:02.770Z,18.05
2023-03-02T09:03:04.284Z,16.95
2023-03-02T09:08:06.300Z,16.60
2023-03-02T09:13:08.653Z,16.88
2023-03-02T09:18:10.395Z,17.77
2023-03-02T09:23:13.567Z,17.25
2023-03-02T09:28:16.141Z,17.52
2023-03-02T09:33:18.528Z,17.65
2023-03-02T09:38:20.164Z,18.08
2023-03-02T09:43:34.899Z,17.45
2023-03-02T09:48:59.716Z,17.38
2023-03-02T09:54:08.483Z,15.02
2023-03-02T09:59:25.805Z,16.25
2023-03-02T10:04:38.779Z,14.83
2023-03-02T10:09:41.378Z,17.00
2023-03-02T10:14:54.017Z,14.90
2023-03-02T10:20:08.459Z,14.00
2023-03-02T10:25:24.277Z,14.00
2023-03-02T10:30:33.762Z,14.05
2023-03-02T10:35:37.988Z,14.20
2023-03-02T10:40:39.989Z,13.98
2023-03-02T10:45:41.544Z,13.48
2023-03-02T10:50:44.260Z,13.30
2023-03-02T10:55:52.326Z,14.35
2023-03-02T11:01:01.575Z,14.52
2023-03-02T11:06:20.105Z,14.63
2023-03-02T11:11:24.544Z,15.02
2023-03-02T11:16:32.488Z,14.23
2023-03-02T11:21:42.926Z,14.57
2023-03-02T11:27:01.002Z,16.83
2023-03-02T11:32:16.337Z,16.98
2023-03-02T11:37:35.060Z,14.85
2023-03-02T11:42:40.834Z,17.15
2023-03-02T11:47:54.269Z,15.57
2023-03-02T11:53:03.662Z,16.13
2023-03-02T11:58:06.196Z,14.05
2023-03-02T12:03:14.838Z,12.80
2023-03-02T12:08:19.495Z,14.47
2023-03-02T12:13:32.748Z,13.13
2023-03-02T12:18:46.638Z,13.00
2023-03-02T12:23:51.117Z,13.50
2023-03-02T12:29:04.742Z,13.57
2023-03-02T12:34:25.504Z,13.65
2023-03-02T12:39:39.024Z,12.73
2023-03-02T12:45:00.869Z,12.85
2023-03-02T12:50:05.799Z,12.55
2023-03-02T12:55:17.156Z,14.23
2023-03-02T13:00:22.740Z,14.07
2023-03-02T13:05:30.637Z,12.18
2023-03-02T13:10:37.154Z,12.57
2023-03-02T13:15:50.925Z,12.02
2023-03-02T13:20:53.295Z,12.68
2023-03-02T13:25:57.904Z,11.02
2023-03-02T13:31:18.066Z,10.55
2023-03-02T13:36:26.389Z,11.95
2023-03-02T13:41:31.548Z,11.23
2023-03-02T13:46:36.366Z,11.57
2023-03-02T13:51:42.314Z,11.77
2023-03-02T13:56:44.662Z,12.98
2023-03-02T14:01:46.385Z,14.80
2023-03-02T14:06:48.100Z,15.20
2023-03-02T14:11:53.310Z,14.63
2023-03-02T14:16:55.103Z,15.68
2023-03-02T14:21:56.774Z,16.40
2023-03-02T14:26:58.529Z,13.40
2023-03-02T14:32:06.685Z,13.65
2023-03-02T14:37:15.070Z,14.05
2023-03-02T14:42:18.855Z,13.55
2023-03-02T14:47:21.799Z,14.38
2023-03-02T14:52:37.511Z,14.82
2023-03-02T14:57:39.050Z,17.88
2023-03-02T15:02:41.200Z,17.90
2023-03-02T15:07:42.999Z,16.90
2023-03-02T15:12:44.712Z,17.15
2023-03-02T15:17:46.285Z,16.17
2023-03-02T15:22:48.095Z,16.20
2023-03-02T15:27:50.290Z,16.42
2023-03-02T15:32:53.166Z,15.15
2023-03-02T15:37:58.139Z,15.02
2023-03-02T15:42:59.713Z,15.25
2023-03-02T15:48:01.471Z,14.77
2023-03-02T15:53:03.083Z,13.85
2023-03-02T15:58:08.116Z,12.98
2023-03-02T16:03:09.814Z,13.32
2023-03-02T16:08:11.667Z,14.25
2023-03-02T16:13:13.344Z,12.32
2023-03-02T16:18:14.919Z,11.75
2023-03-02T16:23:16.514Z,10.93
2023-03-02T16:28:19.548Z,13.75
2023-03-02T16:33:21.079Z,11.27
2023-03-02T16:38:22.576Z,13.38
2023-03-02T16:43:24.422Z,13.75
2023-03-02T16:48:26.202Z,12.57
2023-03-02T16:53:27.812Z,12.85
2023-03-02T16:58:29.492Z,14.60
2023-03-02T17:03:31.483Z,14.88
2023-03-02T17:08:33.368Z,15.02
2023-03-02T17:13:35.153Z,15.35
2023-03-02T17:18:36.879Z,15.43
2023-03-02T17:23:38.561Z,16.05
2023-03-02T17:28:40.176Z,15.88
2023-03-02T17:33:41.742Z,15.43
2023-03-02T17:38:43.321Z,15.43
2023-03-02T17:43:45.151Z,14.57
2023-03-02T17:48:48.624Z,15.40
2023-03-02T17:53:51.838Z,15.43
2023-03-02T17:58:55.300Z,14.50
2023-03-02T18:03:57.666Z,14.10
2023-03-02T18:08:59.345Z,14.05
2023-03-02T18:14:00.961Z,13.82
2023-03-02T18:19:02.767Z,14.57
2023-03-02T18:24:04.626Z,14.38
2023-03-02T18:29:06.338Z,14.63
2023-03-02T18:34:07.836Z,13.50
2023-03-02T18:39:09.313Z,14.23
2023-03-02T18:44:10.819Z,13.35
2023-03-02T18:49:12.403Z,14.88
2023-03-02T18:54:14.030Z,13.15
2023-03-02T18:59:17.653Z,13.93
2023-03-02T19:04:19.671Z,14.52
2023-03-02T19:09:21.440Z,14.32
2023-03-02T19:14:23.027Z,13.38
2023-03-02T19:19:25.679Z,13.57
2023-03-02T19:24:27.710Z,14.25
2023-03-02T19:29:29.446Z,15.38
2023-03-02T19:34:30.955Z,14.70
2023-03-02T19:39:32.494Z,16.88
2023-03-02T19:44:35.016Z,15.80
2023-03-02T19:49:37.730Z,17.10
2023-03-02T19:54:40.391Z,16.08
2023-03-02T19:59:42.001Z,17.17
2023-03-02T20:04:45.043Z,16.08
2023-03-02T20:09:46.748Z,17.17
2023-03-02T20:14:49.323Z,17.60
2023-03-02T20:19:52.616Z,16.50
2023-03-02T20:24:54.335Z,16.38
2023-03-02T20:29:56.014Z,16.15
2023-03-02T20:34:57.947Z,16.80
2023-03-02T20:39:59.763Z,17.55
2023-03-02T20:45:02.126Z,16.33
2023-03-02T20:50:07.611Z,16.42
2023-03-02T20:55:10.529Z,16.73
2023-03-02T21:00:17.887Z,18.15
2023-03-02T21:05:20.738Z,19.13
2023-03-02T21:10:32.276Z,17.90
2023-03-02T21:15:34.646Z,17.92
2023-03-02T21:20:36.367Z,19.33
2023-03-02T21:25:39.038Z,17.95
2023-03-02T21:30:43.378Z,17.92
2023-03-02T21:35:46.340Z,18.48
2023-03-02T21:40:48.000Z,19.30
2023-03-02T21:45:49.804Z,19.08
2023-03-02T21:50:51.587Z,18.38
2023-03-02T21:55:54.928Z,18.70
2023-03-02T22:00:56.584Z,18.73
2023-03-02T22:05:58.093Z,18.90
2023-03-02T22:10:59.621Z,19.92
2023-03-02T22:16:13.497Z,20.85
2023-03-02T22:21:28.690Z,19.80
2023-03-02T22:26:30.546Z,19.98
2023-03-02T22:31:32.140Z,20.30
2023-03-02T22:36:33.639Z,21.92
2023-03-02T22:41:35.146Z,20.23
2023-03-02T22:46:36.709Z,22.05
2023-03-02T22:51:38.339Z,21.15
2023-03-02T22:56:47.364Z,22.80
2023-03-02T23:01:49.362Z,19.33
2023-03-02T23:06:54.826Z,21.48
2023-03-02T23:12:15.871Z,21.48
2023-03-02T23:17:22.543Z,20.55
2023-03-02T23:22:28.414Z,21.48
2023-03-02T23:27:30.247Z,21.60
2023-03-02T23:32:31.782Z,21.10
2023-03-02T23:37:33.516Z,22.50
2023-03-02T23:42:34.991Z,21.52
2023-03-02T23:47:36.471Z,22.45
2023-03-02T23:52:39.238Z,20.77
2023-03-02T23:57:40.906Z,20.95
